createdAt,value
2019-02-12T00:01:44.354Z,7.05
2019-02-12T00:04:15.231Z,7.60
2019-02-12T00:06:46.039Z,10.98
2019-02-12T00:09:16.806Z,6.28
2019-02-12T00:11:47.760Z,5.70
2019-02-12T00:14:18.498Z,9.45
2019-02-12T00:16:49.210Z,8.40
2019-02-12T00:19:20.038Z,10.78
2019-02-12T00:21:50.851Z,4.83
2019-02-12T00:24:21.699Z,5.22
2019-02-12T00:26:52.574Z,9.53
2019-02-12T00:29:23.484Z,22.60
2019-02-12T00:31:54.275Z,7.30
2019-02-12T00:34:25.388Z,5.80
2019-02-12T00:36:56.306Z,7.20
2019-02-12T00:39:27.089Z,8.28
2019-02-12T00:41:58.035Z,10.93
2019-02-12T00:44:31.795Z,10.93
2019-02-12T00:47:02.571Z,3.50
2019-02-12T00:49:33.340Z,5.95
2019-02-12T00:52:04.058Z,7.20
2019-02-12T00:54:34.844Z,11.12
2019-02-12T00:57:05.629Z,7.03
2019-02-12T00:59:36.363Z,8.10
2019-02-12T01:02:07.154Z,12.65
2019-02-12T01:04:38.094Z,8.73
2019-02-12T01:07:09.035Z,8.18
2019-02-12T01:09:39.879Z,7.85
2019-02-12T01:12:10.701Z,7.85
2019-02-12T01:14:41.460Z,10.30
2019-02-12T01:17:12.202Z,8.35
2019-02-12T01:19:43.460Z,11.48
2019-02-12T01:22:14.260Z,9.95
2019-02-12T01:24:45.074Z,12.40
2019-02-12T01:27:18.431Z,19.60
2019-02-12T01:29:49.182Z,6.72
2019-02-12T01:32:20.312Z,7.60
2019-02-12T01:34:51.207Z,5.05
2019-02-12T01:37:22.003Z,4.70
2019-02-12T01:39:52.889Z,8.65
2019-02-12T01:42:23.678Z,6.03
2019-02-12T01:44:54.449Z,7.72
2019-02-12T01:47:25.191Z,3.52
2019-02-12T01:49:56.169Z,11.85
2019-02-12T01:52:26.966Z,3.62
2019-02-12T01:54:57.688Z,9.15
2019-02-12T01:57:28.532Z,8.28
2019-02-12T01:59:59.344Z,8.08
2019-02-12T02:02:30.107Z,4.65
2019-02-12T02:05:00.965Z,5.70
2019-02-12T02:07:31.806Z,6.30
2019-02-12T02:10:03.360Z,4.47
2019-02-12T02:12:34.262Z,7.03
2019-02-12T02:15:06.023Z,5.10
2019-02-12T02:17:36.802Z,2.22
2019-02-12T02:20:08.429Z,1.80
2019-02-12T02:22:39.252Z,3.80
2019-02-12T02:31:01.677Z,3.90
2019-02-12T02:33:32.503Z,3.80
2019-02-12T02:36:03.522Z,3.65
2019-02-12T02:38:34.293Z,6.90
2019-02-12T02:41:05.041Z,5.70
2019-02-12T02:43:35.789Z,2.75
2019-02-12T02:46:06.511Z,9.90
2019-02-12T02:48:37.323Z,3.02
2019-02-12T02:51:08.067Z,11.68
2019-02-12T02:53:38.889Z,6.15
2019-02-12T02:56:09.679Z,4.80
2019-02-12T02:58:40.505Z,9.30
2019-02-12T03:01:11.268Z,7.67
2019-02-12T03:03:47.662Z,10.68
2019-02-12T03:06:18.449Z,5.10
2019-02-12T03:08:49.228Z,5.50
2019-02-12T03:11:20.276Z,2.70
2019-02-12T03:13:52.713Z,5.00
2019-02-12T03:16:23.514Z,10.43
2019-02-12T03:18:54.321Z,2.30
2019-02-12T03:21:24.995Z,1.20
2019-02-12T03:23:55.795Z,5.40
2019-02-12T03:26:26.699Z,4.50
2019-02-12T03:28:57.545Z,3.77
2019-02-12T03:31:28.285Z,2.40
2019-02-12T03:33:59.172Z,2.33
2019-02-12T03:36:31.198Z,6.35
2019-02-12T03:39:01.991Z,4.60
2019-02-12T03:41:32.742Z,5.50
2019-02-12T03:44:03.462Z,9.65
2019-02-12T03:46:34.177Z,5.67
2019-02-12T03:49:05.012Z,4.53
2019-02-12T03:51:35.726Z,4.00
2019-02-12T03:54:06.450Z,9.55
2019-02-12T03:56:37.179Z,10.17
2019-02-12T03:59:07.783Z,5.65
2019-02-12T04:01:38.287Z,9.98
2019-02-12T04:04:08.928Z,14.75
2019-02-12T04:06:39.480Z,4.55
2019-02-12T04:09:09.971Z,4.70
2019-02-12T04:11:40.539Z,6.92
2019-02-12T04:14:11.073Z,7.70
2019-02-12T04:16:41.563Z,17.77
2019-02-12T04:19:12.130Z,3.22
2019-02-12T04:21:42.693Z,2.12
2019-02-12T04:24:13.309Z,17.30
2019-02-12T04:26:43.937Z,10.60
2019-02-12T04:29:14.518Z,7.17
2019-02-12T04:31:45.007Z,3.92
2019-02-12T04:34:15.538Z,7.47
2019-02-12T04:36:46.019Z,9.83
2019-02-12T04:39:16.534Z,6.20
2019-02-12T04:41:47.043Z,9.10
2019-02-12T04:44:17.603Z,12.77
2019-02-12T04:46:48.117Z,2.77
2019-02-12T04:49:18.652Z,3.77
2019-02-12T04:51:49.196Z,3.50
2019-02-12T04:54:19.650Z,9.48
2019-02-12T04:56:51.189Z,8.60
2019-02-12T04:59:21.659Z,5.40
2019-02-12T05:01:52.275Z,7.20
2019-02-12T05:04:22.954Z,4.75
2019-02-12T05:06:55.038Z,8.67
2019-02-12T05:09:25.625Z,15.00
2019-02-12T05:11:59.970Z,5.58
2019-02-12T05:14:30.559Z,11.40
2019-02-12T05:17:01.306Z,11.68
2019-02-12T05:19:31.979Z,13.35
2019-02-12T05:22:02.549Z,5.70
2019-02-12T05:24:33.154Z,7.12
2019-02-12T05:27:03.771Z,6.55
2019-02-12T05:29:34.460Z,5.60
2019-02-12T05:32:05.044Z,4.08
2019-02-12T05:34:38.629Z,7.60
2019-02-12T05:37:09.219Z,10.75
2019-02-12T05:39:39.850Z,7.40
2019-02-12T05:42:10.435Z,10.58
2019-02-12T05:44:41.085Z,12.90
2019-02-12T05:47:11.749Z,4.58
2019-02-12T05:49:42.447Z,17.50
2019-02-12T05:52:12.969Z,7.50
2019-02-12T05:54:43.557Z,9.38
2019-02-12T05:57:14.104Z,7.50
2019-02-12T05:59:47.026Z,8.20
2019-02-12T06:02:16.862Z,18.55
2019-02-12T06:04:47.494Z,12.18
2019-02-12T06:07:18.001Z,9.00
2019-02-12T06:09:48.547Z,15.18
2019-02-12T06:12:19.173Z,8.57
2019-02-12T06:14:50.634Z,11.63
2019-02-12T06:17:21.157Z,11.70
2019-02-12T06:19:51.845Z,17.25
2019-02-12T06:22:22.512Z,8.43
2019-02-12T06:24:53.070Z,13.62
2019-02-12T06:27:23.745Z,5.10
2019-02-12T06:29:54.288Z,12.35
2019-02-12T06:32:24.783Z,7.20
2019-02-12T06:34:55.456Z,5.17
2019-02-12T06:37:27.402Z,8.05
2019-02-12T06:39:58.201Z,8.70
2019-02-12T06:42:29.040Z,8.40
2019-02-12T06:44:59.614Z,6.58
2019-02-12T06:47:32.193Z,4.95
2019-02-12T06:50:02.795Z,9.90
2019-02-12T06:52:34.231Z,9.70
2019-02-12T06:55:07.736Z,21.65
2019-02-12T06:57:39.830Z,7.85
2019-02-12T07:00:10.801Z,15.23
2019-02-12T07:03:19.971Z,3.08
2019-02-12T07:06:35.707Z,12.77
2019-02-12T07:09:36.219Z,8.15
2019-02-12T07:13:08.832Z,9.25
2019-02-12T07:15:51.953Z,14.23
2019-02-12T07:19:29.297Z,28.10
2019-02-12T07:22:53.291Z,8.43
2019-02-12T07:25:56.755Z,3.67
2019-02-12T07:29:12.148Z,10.10
2019-02-12T07:32:37.176Z,6.30
2019-02-12T07:36:00.846Z,4.87
2019-02-12T07:38:57.457Z,9.30
2019-02-12T07:42:34.882Z,17.67
2019-02-12T07:45:47.264Z,7.50
2019-02-12T07:49:22.900Z,7.25
2019-02-12T07:52:48.051Z,6.43
2019-02-12T07:56:22.365Z,8.48
2019-02-12T07:59:52.421Z,5.58
2019-02-12T08:03:01.977Z,20.00
2019-02-12T08:06:16.891Z,9.40
2019-02-12T08:09:46.826Z,10.30
2019-02-12T08:12:46.849Z,8.57
2019-02-12T08:15:54.276Z,7.20
2019-02-12T08:19:12.380Z,11.15
2019-02-12T08:22:14.246Z,11.08
2019-02-12T08:25:45.774Z,10.68
2019-02-12T08:29:10.640Z,15.10
2019-02-12T08:32:25.112Z,12.60
2019-02-12T08:35:57.317Z,14.18
2019-02-12T08:39:23.915Z,4.92
2019-02-12T08:42:36.673Z,17.60
2019-02-12T08:46:11.511Z,10.07
2019-02-12T08:49:19.379Z,11.20
2019-02-12T08:52:41.666Z,4.70
2019-02-12T08:56:24.555Z,12.43
2019-02-12T09:00:10.503Z,15.40
2019-02-12T09:03:20.797Z,8.60
2019-02-12T09:06:21.153Z,9.08
2019-02-12T09:10:08.814Z,7.95
2019-02-12T09:13:38.474Z,8.38
2019-02-12T09:16:59.536Z,7.87
2019-02-12T09:20:19.417Z,6.87
2019-02-12T09:24:07.038Z,8.23
2019-02-12T09:27:26.659Z,12.10
2019-02-12T09:30:49.583Z,15.65
2019-02-12T09:34:28.225Z,8.05
2019-02-12T09:37:52.167Z,14.70
2019-02-12T09:41:17.219Z,12.15
2019-02-12T09:44:43.032Z,14.95
2019-02-12T09:48:13.787Z,11.08
2019-02-12T09:51:48.377Z,14.45
2019-02-12T09:55:31.807Z,10.13
2019-02-12T09:59:17.345Z,8.30
2019-02-12T10:02:45.915Z,10.63
2019-02-12T10:06:21.303Z,9.10
2019-02-12T10:09:50.312Z,15.83
2019-02-12T10:12:52.131Z,13.48
2019-02-12T10:16:12.461Z,7.70
2019-02-12T10:19:41.951Z,10.03
2019-02-12T10:23:36.477Z,9.08
2019-02-12T10:26:11.522Z,14.63
2019-02-12T10:29:17.681Z,8.03
2019-02-12T10:31:46.442Z,13.98
2019-02-12T10:34:17.390Z,6.23
2019-02-12T10:36:48.026Z,17.48
2019-02-12T10:39:18.672Z,10.55
2019-02-12T10:41:49.122Z,8.50
2019-02-12T10:44:19.902Z,5.22
2019-02-12T10:46:50.482Z,9.70
2019-02-12T10:49:20.882Z,8.70
2019-02-12T10:51:51.315Z,9.28
2019-02-12T10:54:27.900Z,13.55
2019-02-12T10:56:54.080Z,11.25
2019-02-12T10:59:24.553Z,12.55
2019-02-12T11:01:55.189Z,12.67
2019-02-12T11:04:25.673Z,6.10
2019-02-12T11:06:56.159Z,5.85
2019-02-12T11:09:26.710Z,10.35
2019-02-12T11:11:57.178Z,17.30
2019-02-12T11:14:27.560Z,4.17
2019-02-12T11:16:58.181Z,10.25
2019-02-12T11:19:28.671Z,27.95
2019-02-12T11:21:58.978Z,14.27
2019-02-12T11:24:35.496Z,9.50
2019-02-12T11:27:01.793Z,8.68
2019-02-12T11:29:32.322Z,8.20
2019-02-12T11:32:02.899Z,8.93
2019-02-12T11:34:33.367Z,6.40
2019-02-12T11:37:03.860Z,8.68
2019-02-12T11:39:34.476Z,8.07
2019-02-12T11:42:04.954Z,8.45
2019-02-12T11:44:35.414Z,8.00
2019-02-12T11:47:07.608Z,8.40
2019-02-12T11:49:37.939Z,7.67
2019-02-12T11:52:08.444Z,5.30
2019-02-12T11:54:43.800Z,16.87
2019-02-12T11:57:11.192Z,6.55
2019-02-12T11:59:41.579Z,9.90
2019-02-12T12:02:12.104Z,5.20
2019-02-12T12:04:42.563Z,4.20
2019-02-12T12:07:13.030Z,7.35
2019-02-12T12:09:43.562Z,9.60
2019-02-12T12:12:14.126Z,7.17
2019-02-12T12:14:44.581Z,7.62
2019-02-12T12:17:15.161Z,5.50
2019-02-12T12:19:45.741Z,12.68
2019-02-12T12:22:16.208Z,8.55
2019-02-12T12:24:51.432Z,3.85
2019-02-12T12:27:19.030Z,7.72
2019-02-12T12:29:49.413Z,14.00
2019-02-12T12:32:20.021Z,4.33
2019-02-12T12:34:50.562Z,5.50
2019-02-12T12:37:21.015Z,13.60
2019-02-12T12:39:51.523Z,9.05
2019-02-12T12:42:22.029Z,5.90
2019-02-12T12:44:52.481Z,9.18
2019-02-12T12:47:23.025Z,8.40
2019-02-12T12:49:53.493Z,9.20
2019-02-12T12:52:24.059Z,11.53
2019-02-12T12:54:59.718Z,14.40
2019-02-12T12:57:26.648Z,7.92
2019-02-12T12:59:57.114Z,15.45
2019-02-12T13:02:27.668Z,9.50
2019-02-12T13:04:58.132Z,15.18
2019-02-12T13:07:28.602Z,7.90
2019-02-12T13:09:59.120Z,4.70
2019-02-12T13:12:30.320Z,7.90
2019-02-12T13:15:00.856Z,2.95
2019-02-12T13:17:31.414Z,6.12
2019-02-12T13:20:01.907Z,4.20
2019-02-12T13:22:33.252Z,4.87
2019-02-12T13:25:08.703Z,1.60
2019-02-12T13:27:35.948Z,8.08
2019-02-12T13:30:08.496Z,4.85
2019-02-12T13:32:38.967Z,2.98
2019-02-12T13:35:10.398Z,4.28
2019-02-12T13:37:40.912Z,6.33
2019-02-12T13:40:12.532Z,6.83
2019-02-12T13:42:43.090Z,7.00
2019-02-12T13:45:15.086Z,3.40
2019-02-12T13:47:45.588Z,8.65
2019-02-12T13:50:16.073Z,6.70
2019-02-12T13:52:46.572Z,6.28
2019-02-12T13:55:17.816Z,3.25
2019-02-12T13:57:48.608Z,6.33
2019-02-12T14:00:19.161Z,1.62
2019-02-12T14:02:49.747Z,6.10
2019-02-12T14:05:20.305Z,3.62
2019-02-12T14:07:50.874Z,5.65
2019-02-12T14:10:21.457Z,6.12
2019-02-12T14:12:51.919Z,4.28
2019-02-12T14:15:22.459Z,2.80
2019-02-12T14:17:52.928Z,6.60
2019-02-12T14:20:23.488Z,5.33
2019-02-12T14:22:53.928Z,8.35
2019-02-12T14:25:25.894Z,7.58
2019-02-12T14:27:56.561Z,3.25
2019-02-12T14:30:27.080Z,9.20
2019-02-12T14:32:57.599Z,4.62
2019-02-12T14:35:28.098Z,3.98
2019-02-12T14:37:58.669Z,8.53
2019-02-12T14:40:29.066Z,5.28
2019-02-12T14:42:59.530Z,8.47
2019-02-12T14:45:30.047Z,5.00
2019-02-12T14:48:00.535Z,10.00
2019-02-12T14:50:30.951Z,8.88
2019-02-12T14:53:01.448Z,5.78
2019-02-12T14:55:33.877Z,3.85
2019-02-12T14:58:04.196Z,6.95
2019-02-12T15:00:34.762Z,5.80
2019-02-12T15:03:05.216Z,5.45
2019-02-12T15:05:35.714Z,8.20
2019-02-12T15:08:06.225Z,6.57
2019-02-12T15:10:36.702Z,4.70
2019-02-12T15:13:07.226Z,5.87
2019-02-12T15:15:37.686Z,5.20
2019-02-12T15:18:08.102Z,4.83
2019-02-12T15:20:38.549Z,6.80
2019-02-12T15:23:09.253Z,2.52
2019-02-12T15:25:41.939Z,9.67
2019-02-12T15:28:11.814Z,9.23
2019-02-12T15:30:42.313Z,5.53
2019-02-12T15:33:12.794Z,4.80
2019-02-12T15:35:43.217Z,2.80
2019-02-12T15:38:13.863Z,12.43
2019-02-12T15:40:44.344Z,5.97
2019-02-12T15:43:14.919Z,3.83
2019-02-12T15:45:45.312Z,6.50
2019-02-12T15:48:15.886Z,3.58
2019-02-12T15:50:46.335Z,7.70
2019-02-12T15:53:16.827Z,4.28
2019-02-12T15:55:51.311Z,14.73
2019-02-12T15:58:19.865Z,6.43
2019-02-12T16:00:50.454Z,7.20
2019-02-12T16:03:21.059Z,10.45
2019-02-12T16:05:51.588Z,15.90
2019-02-12T16:08:22.261Z,3.10
2019-02-12T16:10:52.801Z,9.80
2019-02-12T16:13:23.388Z,5.58
2019-02-12T16:15:53.929Z,6.37
2019-02-12T16:18:24.936Z,7.67
2019-02-12T16:20:55.469Z,11.00
2019-02-12T16:23:25.992Z,6.30
2019-02-12T16:25:59.573Z,7.85
2019-02-12T16:28:28.758Z,10.15
2019-02-12T16:30:59.322Z,13.50
2019-02-12T16:33:30.710Z,7.97
2019-02-12T16:36:04.825Z,6.87
2019-02-12T16:38:35.404Z,4.37
2019-02-12T16:41:06.204Z,6.08
2019-02-12T16:43:36.747Z,8.25
2019-02-12T16:46:18.328Z,9.15
2019-02-12T16:48:48.875Z,5.55
2019-02-12T16:51:19.371Z,6.78
2019-02-12T16:53:49.929Z,7.17
2019-02-12T16:56:20.512Z,6.67
2019-02-12T16:58:53.082Z,8.18
2019-02-12T17:01:23.666Z,8.55
2019-02-12T17:03:57.303Z,8.48
2019-02-12T17:06:28.024Z,17.90
2019-02-12T17:09:01.607Z,7.60
2019-02-12T17:11:32.528Z,6.40
2019-02-12T17:14:03.153Z,11.50
2019-02-12T17:16:34.116Z,7.35
2019-02-12T17:19:06.339Z,9.90
2019-02-12T17:21:37.465Z,4.10
2019-02-12T17:24:08.934Z,4.92
2019-02-12T17:26:39.717Z,4.75
2019-02-12T17:29:10.325Z,9.10
2019-02-12T17:31:41.008Z,5.55
2019-02-12T17:34:11.752Z,9.10
2019-02-12T17:36:42.431Z,3.10
2019-02-12T17:39:13.028Z,5.65
2019-02-12T17:41:43.589Z,9.90
2019-02-12T17:44:14.460Z,8.40
2019-02-12T17:46:45.060Z,6.87
2019-02-12T17:49:15.610Z,7.97
2019-02-12T17:51:46.409Z,10.98
2019-02-12T17:54:17.851Z,6.67
2019-02-12T17:56:48.555Z,6.78
2019-02-12T17:59:19.170Z,7.92
2019-02-12T18:01:49.743Z,8.23
2019-02-12T18:04:20.347Z,4.37
2019-02-12T18:06:50.921Z,10.10
2019-02-12T18:09:21.456Z,5.30
2019-02-12T18:11:52.146Z,7.80
2019-02-12T18:14:22.835Z,8.40
2019-02-12T18:16:53.389Z,10.80
2019-02-12T18:19:23.975Z,7.00
2019-02-12T18:21:54.638Z,9.15
2019-02-12T18:24:47.453Z,11.33
2019-02-12T18:30:13.023Z,12.33
2019-02-12T18:32:44.109Z,7.33
2019-02-12T18:35:14.642Z,6.62
2019-02-12T18:37:45.243Z,12.00
2019-02-12T18:40:15.866Z,9.55
2019-02-12T18:42:46.538Z,8.25
2019-02-12T18:45:17.786Z,11.40
2019-02-12T18:47:48.485Z,7.85
2019-02-12T18:50:18.990Z,11.23
2019-02-12T18:52:49.654Z,11.38
2019-02-12T18:55:20.570Z,18.07
2019-02-12T18:57:51.160Z,11.57
2019-02-12T19:00:21.905Z,20.00
2019-02-12T19:02:52.521Z,7.78
2019-02-12T19:05:23.228Z,12.05
2019-02-12T19:07:57.648Z,14.33
2019-02-12T19:10:28.635Z,13.00
2019-02-12T19:13:00.039Z,11.30
2019-02-12T19:15:30.663Z,11.20
2019-02-12T19:18:12.057Z,13.38
2019-02-12T19:20:42.754Z,12.82
2019-02-12T19:23:13.968Z,17.87
2019-02-12T19:25:44.622Z,12.60
2019-02-12T19:28:15.248Z,15.08
2019-02-12T19:30:45.903Z,18.37
2019-02-12T19:33:16.589Z,14.87
2019-02-12T19:35:47.236Z,11.08
2019-02-12T19:38:18.031Z,12.23
2019-02-12T19:40:48.582Z,27.05
2019-02-12T19:43:19.240Z,13.53
2019-02-12T19:45:49.875Z,24.77
2019-02-12T19:48:20.614Z,15.95
2019-02-12T19:50:51.321Z,19.20
2019-02-12T19:53:22.001Z,16.77
2019-02-12T19:55:52.640Z,15.95
2019-02-12T19:58:23.304Z,14.03
2019-02-12T20:00:54.015Z,24.35
2019-02-12T20:03:24.642Z,19.30
2019-02-12T20:05:55.268Z,17.82
2019-02-12T20:08:25.854Z,14.00
2019-02-12T20:10:56.849Z,19.67
2019-02-12T20:13:27.414Z,18.77
2019-02-12T20:15:58.155Z,14.60
2019-02-12T20:18:29.512Z,28.10
2019-02-12T20:21:00.853Z,22.60
2019-02-12T20:23:32.128Z,24.23
2019-02-12T20:26:02.715Z,21.20
2019-02-12T20:28:33.322Z,17.67
2019-02-12T20:31:03.941Z,19.85
2019-02-12T20:33:34.506Z,18.57
2019-02-12T20:36:05.510Z,18.73
2019-02-12T20:38:38.898Z,19.65
2019-02-12T20:41:10.420Z,21.90
2019-02-12T20:43:40.976Z,21.05
2019-02-12T20:46:12.761Z,22.48
2019-02-12T20:48:43.352Z,25.60
2019-02-12T20:51:13.890Z,18.23
2019-02-12T20:53:44.462Z,25.45
2019-02-12T20:56:15.161Z,19.92
2019-02-12T20:58:47.031Z,28.70
2019-02-12T21:01:17.664Z,23.10
2019-02-12T21:03:48.276Z,20.65
2019-02-12T21:06:18.803Z,26.00
2019-02-12T21:08:49.412Z,20.60
2019-02-12T21:11:19.943Z,24.50
2019-02-12T21:13:50.409Z,21.48
2019-02-12T21:16:21.761Z,23.05
2019-02-12T21:18:52.466Z,18.45
2019-02-12T21:21:23.097Z,20.00
2019-02-12T21:23:53.631Z,22.98
2019-02-12T21:26:24.267Z,22.90
2019-02-12T21:28:54.818Z,19.77
2019-02-12T21:31:25.516Z,20.37
2019-02-12T21:33:56.167Z,24.60
2019-02-12T21:36:26.743Z,17.23
2019-02-12T21:38:57.403Z,20.03
2019-02-12T21:41:27.965Z,18.15
2019-02-12T21:43:58.476Z,17.05
2019-02-12T21:46:29.998Z,28.25
2019-02-12T21:49:00.757Z,20.52
2019-02-12T21:51:31.264Z,21.65
2019-02-12T21:54:01.886Z,22.87
2019-02-12T21:56:32.706Z,17.57
2019-02-12T21:59:03.181Z,20.92
2019-02-12T22:01:33.666Z,19.27
2019-02-12T22:04:04.175Z,25.40
2019-02-12T22:06:34.653Z,23.47
2019-02-12T22:09:06.646Z,18.27
2019-02-12T22:11:37.204Z,19.05
2019-02-12T22:14:07.695Z,18.37
2019-02-12T22:16:38.203Z,20.82
2019-02-12T22:19:08.674Z,17.00
2019-02-12T22:21:39.210Z,25.08
2019-02-12T22:24:09.682Z,20.53
2019-02-12T22:26:40.187Z,17.37
2019-02-12T22:29:10.741Z,22.60
2019-02-12T22:31:41.172Z,21.82
2019-02-12T22:34:11.708Z,25.10
2019-02-12T22:36:42.191Z,18.85
2019-02-12T22:39:12.653Z,18.63
2019-02-12T22:41:43.160Z,19.12
2019-02-12T22:44:13.643Z,18.37
2019-02-12T22:46:44.115Z,40.75
2019-02-12T22:49:14.610Z,15.20
2019-02-12T22:51:45.155Z,19.52
2019-02-12T22:54:15.660Z,21.13
2019-02-12T22:56:46.208Z,19.67
2019-02-12T22:59:16.664Z,20.13
2019-02-12T23:01:47.131Z,17.95
2019-02-12T23:04:18.738Z,19.17
2019-02-12T23:06:49.201Z,27.15
2019-02-12T23:09:19.763Z,18.30
2019-02-12T23:11:50.283Z,23.18
2019-02-12T23:14:23.832Z,19.93
2019-02-12T23:16:54.254Z,17.73
2019-02-12T23:19:24.746Z,21.23
2019-02-12T23:21:55.221Z,18.82
2019-02-12T23:24:25.690Z,20.65
2019-02-12T23:26:56.339Z,20.57
2019-02-12T23:29:26.820Z,25.68
2019-02-12T23:31:57.280Z,20.23
2019-02-12T23:34:27.859Z,19.40
2019-02-12T23:36:58.392Z,20.23
2019-02-12T23:39:28.850Z,22.13
2019-02-12T23:41:59.372Z,20.65
2019-02-12T23:44:29.825Z,26.57
2019-02-12T23:47:00.330Z,20.08
2019-02-12T23:49:30.818Z,19.85
2019-02-12T23:52:01.220Z,21.65
2019-02-12T23:54:31.692Z,24.40
2019-02-12T23:57:02.226Z,23.57
2019-02-12T23:59:32.956Z,22.73
